sensor_id;sensor_type;location;lat;lon;timestamp;P1;durP1;ratioP1;P2;durP2;ratioP2
20531;SDS011;10424;52.102;8.084;2022-09-27T00:00:47;23.83;;;11.38;;
20531;SDS011;10424;52.102;8.084;2022-09-27T00:03:14;21.27;;;11.55;;
20531;SDS011;10424;52.102;8.084;2022-09-27T00:05:42;20.60;;;11.45;;
20531;SDS011;10424;52.102;8.084;2022-09-27T00:08:09;24.45;;;11.45;;
20531;SDS011;10424;52.102;8.084;2022-09-27T00:10:37;22.10;;;10.68;;
20531;SDS011;10424;52.102;8.084;2022-09-27T00:13:04;20.27;;;11.20;;
20531;SDS011;10424;52.102;8.084;2022-09-27T00:15:31;20.50;;;9.77;;
20531;SDS011;10424;52.102;8.084;2022-09-27T00:18:00;19.52;;;9.32;;
20531;SDS011;10424;52.102;8.084;2022-09-27T00:20:28;20.42;;;9.30;;
20531;SDS011;10424;52.102;8.084;2022-09-27T00:22:55;17.98;;;9.32;;
20531;SDS011;10424;52.102;8.084;2022-09-27T00:25:22;18.08;;;9.60;;
20531;SDS011;10424;52.102;8.084;2022-09-27T00:27:49;23.58;;;9.68;;
20531;SDS011;10424;52.102;8.084;2022-09-27T00:30:17;18.05;;;8.82;;
20531;SDS011;10424;52.102;8.084;2022-09-27T00:32:44;18.95;;;8.90;;
20531;SDS011;10424;52.102;8.084;2022-09-27T00:35:13;19.52;;;9.32;;
20531;SDS011;10424;52.102;8.084;2022-09-27T00:37:40;18.35;;;8.10;;
20531;SDS011;10424;52.102;8.084;2022-09-27T00:40:08;16.67;;;7.72;;
20531;SDS011;10424;52.102;8.084;2022-09-27T00:42:35;15.27;;;7.75;;
20531;SDS011;10424;52.102;8.084;2022-09-27T00:45:05;15.27;;;7.10;;
20531;SDS011;10424;52.102;8.084;2022-09-27T00:47:34;15.63;;;7.13;;
20531;SDS011;10424;52.102;8.084;2022-09-27T00:50:05;14.40;;;6.53;;
20531;SDS011;10424;52.102;8.084;2022-09-27T00:52:37;14.93;;;6.78;;
20531;SDS011;10424;52.102;8.084;2022-09-27T00:55:08;16.38;;;6.38;;
20531;SDS011;10424;52.102;8.084;2022-09-27T00:57:37;14.85;;;5.93;;
20531;SDS011;10424;52.102;8.084;2022-09-27T01:00:06;12.13;;;5.75;;
20531;SDS011;10424;52.102;8.084;2022-09-27T01:02:34;18.05;;;6.20;;
20531;SDS011;10424;52.102;8.084;2022-09-27T01:05:02;17.05;;;5.80;;
20531;SDS011;10424;52.102;8.084;2022-09-27T01:07:30;12.02;;;5.88;;
20531;SDS011;10424;52.102;8.084;2022-09-27T01:09:58;11.45;;;5.50;;
20531;SDS011;10424;52.102;8.084;2022-09-27T01:12:27;11.60;;;5.60;;
20531;SDS011;10424;52.102;8.084;2022-09-27T01:15:03;11.57;;;5.35;;
20531;SDS011;10424;52.102;8.084;2022-09-27T01:17:39;14.23;;;5.63;;
20531;SDS011;10424;52.102;8.084;2022-09-27T01:20:22;11.95;;;5.80;;
20531;SDS011;10424;52.102;8.084;2022-09-27T01:22:58;13.10;;;5.05;;
20531;SDS011;10424;52.102;8.084;2022-09-27T01:25:37;14.38;;;5.53;;
20531;SDS011;10424;52.102;8.084;2022-09-27T01:28:11;11.60;;;5.72;;
20531;SDS011;10424;52.102;8.084;2022-09-27T01:30:42;13.20;;;5.60;;
20531;SDS011;10424;52.102;8.084;2022-09-27T01:33:17;15.90;;;5.80;;
20531;SDS011;10424;52.102;8.084;2022-09-27T01:35:51;14.48;;;4.80;;
20531;SDS011;10424;52.102;8.084;2022-09-27T01:38:22;9.90;;;5.20;;
20531;SDS011;10424;52.102;8.084;2022-09-27T01:40:52;14.32;;;5.93;;
20531;SDS011;10424;52.102;8.084;2022-09-27T01:43:21;13.73;;;5.07;;
20531;SDS011;10424;52.102;8.084;2022-09-27T01:45:52;11.32;;;4.80;;
20531;SDS011;10424;52.102;8.084;2022-09-27T01:48:21;9.63;;;4.90;;
20531;SDS011;10424;52.102;8.084;2022-09-27T01:50:50;13.70;;;5.28;;
20531;SDS011;10424;52.102;8.084;2022-09-27T01:53:19;12.57;;;4.82;;
20531;SDS011;10424;52.102;8.084;2022-09-27T01:55:47;11.38;;;4.75;;
20531;SDS011;10424;52.102;8.084;2022-09-27T01:58:16;11.02;;;4.50;;
20531;SDS011;10424;52.102;8.084;2022-09-27T02:00:45;11.20;;;4.60;;
20531;SDS011;10424;52.102;8.084;2022-09-27T02:03:15;11.30;;;5.22;;
20531;SDS011;10424;52.102;8.084;2022-09-27T02:05:46;13.02;;;4.53;;
20531;SDS011;10424;52.102;8.084;2022-09-27T02:08:16;12.75;;;5.15;;
20531;SDS011;10424;52.102;8.084;2022-09-27T02:10:45;11.57;;;5.18;;
20531;SDS011;10424;52.102;8.084;2022-09-27T02:13:16;9.23;;;4.82;;
20531;SDS011;10424;52.102;8.084;2022-09-27T02:15:47;10.18;;;4.70;;
20531;SDS011;10424;52.102;8.084;2022-09-27T02:18:22;13.07;;;4.63;;
20531;SDS011;10424;52.102;8.084;2022-09-27T02:20:54;11.18;;;4.60;;
20531;SDS011;10424;52.102;8.084;2022-09-27T02:23:24;11.57;;;4.53;;
20531;SDS011;10424;52.102;8.084;2022-09-27T02:25:54;11.18;;;4.45;;
20531;SDS011;10424;52.102;8.084;2022-09-27T02:28:23;12.30;;;4.90;;
20531;SDS011;10424;52.102;8.084;2022-09-27T02:30:52;14.75;;;4.05;;
20531;SDS011;10424;52.102;8.084;2022-09-27T02:33:22;10.68;;;3.90;;
20531;SDS011;10424;52.102;8.084;2022-09-27T02:35:50;10.07;;;4.25;;
20531;SDS011;10424;52.102;8.084;2022-09-27T02:38:18;9.55;;;3.97;;
20531;SDS011;10424;52.102;8.084;2022-09-27T02:40:46;12.60;;;3.60;;
20531;SDS011;10424;52.102;8.084;2022-09-27T02:43:14;10.35;;;3.53;;
20531;SDS011;10424;52.102;8.084;2022-09-27T02:45:44;9.48;;;3.47;;
20531;SDS011;10424;52.102;8.084;2022-09-27T02:48:14;8.88;;;3.08;;
20531;SDS011;10424;52.102;8.084;2022-09-27T02:50:55;6.30;;;2.70;;
20531;SDS011;10424;52.102;8.084;2022-09-27T02:53:28;10.30;;;2.90;;
20531;SDS011;10424;52.102;8.084;2022-09-27T02:55:58;8.80;;;2.85;;
20531;SDS011;10424;52.102;8.084;2022-09-27T02:58:30;9.15;;;2.60;;
20531;SDS011;10424;52.102;8.084;2022-09-27T03:01:00;8.38;;;2.83;;
20531;SDS011;10424;52.102;8.084;2022-09-27T03:03:32;11.50;;;2.63;;
20531;SDS011;10424;52.102;8.084;2022-09-27T03:06:05;11.52;;;2.53;;
20531;SDS011;10424;52.102;8.084;2022-09-27T03:08:34;8.98;;;2.53;;
20531;SDS011;10424;52.102;8.084;2022-09-27T03:11:02;7.80;;;2.80;;
20531;SDS011;10424;52.102;8.084;2022-09-27T03:13:30;8.63;;;2.92;;
20531;SDS011;10424;52.102;8.084;2022-09-27T03:15:58;7.47;;;3.00;;
20531;SDS011;10424;52.102;8.084;2022-09-27T03:18:26;8.27;;;2.72;;
20531;SDS011;10424;52.102;8.084;2022-09-27T03:20:53;7.30;;;2.90;;
20531;SDS011;10424;52.102;8.084;2022-09-27T03:23:22;8.55;;;2.80;;
20531;SDS011;10424;52.102;8.084;2022-09-27T03:25:50;6.15;;;2.50;;
20531;SDS011;10424;52.102;8.084;2022-09-27T03:28:17;7.97;;;2.70;;
20531;SDS011;10424;52.102;8.084;2022-09-27T03:30:45;7.25;;;2.67;;
20531;SDS011;10424;52.102;8.084;2022-09-27T03:33:13;9.93;;;2.70;;
20531;SDS011;10424;52.102;8.084;2022-09-27T03:35:40;10.20;;;2.47;;
20531;SDS011;10424;52.102;8.084;2022-09-27T03:38:08;6.75;;;2.42;;
20531;SDS011;10424;52.102;8.084;2022-09-27T03:40:37;6.32;;;2.50;;
20531;SDS011;10424;52.102;8.084;2022-09-27T03:43:05;7.20;;;2.40;;
20531;SDS011;10424;52.102;8.084;2022-09-27T03:45:32;8.63;;;2.28;;
20531;SDS011;10424;52.102;8.084;2022-09-27T03:48:00;7.78;;;2.30;;
20531;SDS011;10424;52.102;8.084;2022-09-27T03:50:27;4.45;;;2.30;;
20531;SDS011;10424;52.102;8.084;2022-09-27T03:52:54;7.47;;;2.40;;
20531;SDS011;10424;52.102;8.084;2022-09-27T03:55:22;8.38;;;2.30;;
20531;SDS011;10424;52.102;8.084;2022-09-27T03:57:51;9.10;;;2.00;;
20531;SDS011;10424;52.102;8.084;2022-09-27T04:00:19;5.88;;;2.13;;
20531;SDS011;10424;52.102;8.084;2022-09-27T04:02:47;8.50;;;2.28;;
20531;SDS011;10424;52.102;8.084;2022-09-27T04:05:14;4.63;;;2.17;;
20531;SDS011;10424;52.102;8.084;2022-09-27T04:07:44;9.10;;;2.72;;
20531;SDS011;10424;52.102;8.084;2022-09-27T04:10:12;5.32;;;2.00;;
20531;SDS011;10424;52.102;8.084;2022-09-27T04:12:39;5.07;;;1.90;;
20531;SDS011;10424;52.102;8.084;2022-09-27T04:15:09;7.25;;;1.92;;
20531;SDS011;10424;52.102;8.084;2022-09-27T04:17:37;5.68;;;2.10;;
20531;SDS011;10424;52.102;8.084;2022-09-27T04:20:06;5.13;;;1.77;;
20531;SDS011;10424;52.102;8.084;2022-09-27T04:22:33;3.55;;;1.75;;
20531;SDS011;10424;52.102;8.084;2022-09-27T04:25:01;5.00;;;1.80;;
20531;SDS011;10424;52.102;8.084;2022-09-27T04:27:28;9.15;;;1.92;;
20531;SDS011;10424;52.102;8.084;2022-09-27T04:29:56;6.40;;;1.90;;
20531;SDS011;10424;52.102;8.084;2022-09-27T04:32:24;5.85;;;1.70;;
20531;SDS011;10424;52.102;8.084;2022-09-27T04:34:52;3.50;;;1.70;;
20531;SDS011;10424;52.102;8.084;2022-09-27T04:37:37;5.07;;;1.70;;
20531;SDS011;10424;52.102;8.084;2022-09-27T04:40:05;6.22;;;1.90;;
20531;SDS011;10424;52.102;8.084;2022-09-27T04:42:32;6.10;;;1.58;;
20531;SDS011;10424;52.102;8.084;2022-09-27T04:45:00;7.70;;;1.90;;
20531;SDS011;10424;52.102;8.084;2022-09-27T04:47:28;5.18;;;2.00;;
20531;SDS011;10424;52.102;8.084;2022-09-27T04:49:56;7.15;;;2.17;;
20531;SDS011;10424;52.102;8.084;2022-09-27T04:52:23;4.75;;;1.75;;
20531;SDS011;10424;52.102;8.084;2022-09-27T04:54:51;5.50;;;2.55;;
20531;SDS011;10424;52.102;8.084;2022-09-27T04:57:18;8.52;;;2.20;;
20531;SDS011;10424;52.102;8.084;2022-09-27T04:59:46;5.80;;;1.90;;
20531;SDS011;10424;52.102;8.084;2022-09-27T05:02:15;7.70;;;2.05;;
20531;SDS011;10424;52.102;8.084;2022-09-27T05:04:44;4.35;;;2.13;;
20531;SDS011;10424;52.102;8.084;2022-09-27T05:07:12;3.22;;;1.70;;
20531;SDS011;10424;52.102;8.084;2022-09-27T05:09:39;6.18;;;2.08;;
20531;SDS011;10424;52.102;8.084;2022-09-27T05:12:06;6.07;;;1.73;;
20531;SDS011;10424;52.102;8.084;2022-09-27T05:14:34;7.03;;;2.17;;
20531;SDS011;10424;52.102;8.084;2022-09-27T05:17:01;4.95;;;2.08;;
20531;SDS011;10424;52.102;8.084;2022-09-27T05:19:29;5.35;;;2.33;;
20531;SDS011;10424;52.102;8.084;2022-09-27T05:21:58;8.93;;;2.22;;
20531;SDS011;10424;52.102;8.084;2022-09-27T05:24:25;6.50;;;2.50;;
20531;SDS011;10424;52.102;8.084;2022-09-27T05:26:53;6.80;;;2.22;;
20531;SDS011;10424;52.102;8.084;2022-09-27T05:29:20;8.07;;;2.30;;
20531;SDS011;10424;52.102;8.084;2022-09-27T05:31:48;7.22;;;2.95;;
20531;SDS011;10424;52.102;8.084;2022-09-27T05:34:15;5.82;;;2.30;;
20531;SDS011;10424;52.102;8.084;2022-09-27T05:36:45;7.38;;;2.25;;
20531;SDS011;10424;52.102;8.084;2022-09-27T05:39:14;7.50;;;2.30;;
20531;SDS011;10424;52.102;8.084;2022-09-27T05:41:43;6.93;;;2.30;;
20531;SDS011;10424;52.102;8.084;2022-09-27T05:44:10;6.82;;;2.30;;
20531;SDS011;10424;52.102;8.084;2022-09-27T05:46:38;7.47;;;2.17;;
20531;SDS011;10424;52.102;8.084;2022-09-27T05:49:06;4.97;;;1.83;;
20531;SDS011;10424;52.102;8.084;2022-09-27T05:51:33;5.22;;;2.30;;
20531;SDS011;10424;52.102;8.084;2022-09-27T05:54:01;4.05;;;2.10;;
20531;SDS011;10424;52.102;8.084;2022-09-27T05:56:29;6.30;;;2.30;;
20531;SDS011;10424;52.102;8.084;2022-09-27T05:58:57;5.50;;;1.90;;
20531;SDS011;10424;52.102;8.084;2022-09-27T06:01:25;6.07;;;2.30;;
20531;SDS011;10424;52.102;8.084;2022-09-27T06:03:52;5.45;;;1.90;;
20531;SDS011;10424;52.102;8.084;2022-09-27T06:06:20;6.20;;;1.90;;
20531;SDS011;10424;52.102;8.084;2022-09-27T06:08:48;10.38;;;2.08;;
20531;SDS011;10424;52.102;8.084;2022-09-27T06:11:15;4.60;;;1.85;;
20531;SDS011;10424;52.102;8.084;2022-09-27T06:13:44;5.40;;;1.90;;
20531;SDS011;10424;52.102;8.084;2022-09-27T06:16:11;4.88;;;1.92;;
20531;SDS011;10424;52.102;8.084;2022-09-27T06:18:39;5.80;;;2.00;;
20531;SDS011;10424;52.102;8.084;2022-09-27T06:21:06;4.57;;;2.00;;
20531;SDS011;10424;52.102;8.084;2022-09-27T06:23:33;5.20;;;2.13;;
20531;SDS011;10424;52.102;8.084;2022-09-27T06:26:02;6.90;;;2.03;;
20531;SDS011;10424;52.102;8.084;2022-09-27T06:28:29;6.63;;;2.22;;
20531;SDS011;10424;52.102;8.084;2022-09-27T06:31:00;3.83;;;2.15;;
20531;SDS011;10424;52.102;8.084;2022-09-27T06:33:28;5.30;;;2.20;;
20531;SDS011;10424;52.102;8.084;2022-09-27T06:35:55;4.97;;;2.40;;
20531;SDS011;10424;52.102;8.084;2022-09-27T06:38:22;3.97;;;2.03;;
20531;SDS011;10424;52.102;8.084;2022-09-27T06:40:50;4.63;;;2.22;;
20531;SDS011;10424;52.102;8.084;2022-09-27T06:43:18;6.85;;;2.20;;
20531;SDS011;10424;52.102;8.084;2022-09-27T06:45:46;3.92;;;2.20;;
20531;SDS011;10424;52.102;8.084;2022-09-27T06:48:15;4.78;;;2.50;;
20531;SDS011;10424;52.102;8.084;2022-09-27T06:50:43;7.90;;;2.40;;
20531;SDS011;10424;52.102;8.084;2022-09-27T06:53:12;6.97;;;2.40;;
20531;SDS011;10424;52.102;8.084;2022-09-27T06:55:40;4.72;;;2.30;;
20531;SDS011;10424;52.102;8.084;2022-09-27T06:58:08;8.63;;;2.50;;
20531;SDS011;10424;52.102;8.084;2022-09-27T07:00:54;5.85;;;2.35;;
20531;SDS011;10424;52.102;8.084;2022-09-27T07:03:24;8.35;;;2.55;;
20531;SDS011;10424;52.102;8.084;2022-09-27T07:05:56;6.20;;;2.83;;
20531;SDS011;10424;52.102;8.084;2022-09-27T07:08:23;6.20;;;2.80;;
20531;SDS011;10424;52.102;8.084;2022-09-27T07:10:52;5.95;;;2.50;;
20531;SDS011;10424;52.102;8.084;2022-09-27T07:13:20;5.05;;;2.70;;
20531;SDS011;10424;52.102;8.084;2022-09-27T07:15:48;6.85;;;2.95;;
20531;SDS011;10424;52.102;8.084;2022-09-27T07:18:15;5.15;;;2.80;;
20531;SDS011;10424;52.102;8.084;2022-09-27T07:20:44;5.93;;;2.50;;
20531;SDS011;10424;52.102;8.084;2022-09-27T07:23:12;3.90;;;2.30;;
20531;SDS011;10424;52.102;8.084;2022-09-27T07:25:40;6.75;;;2.95;;
20531;SDS011;10424;52.102;8.084;2022-09-27T07:28:14;7.13;;;2.50;;
20531;SDS011;10424;52.102;8.084;2022-09-27T07:30:41;5.90;;;2.70;;
20531;SDS011;10424;52.102;8.084;2022-09-27T07:33:09;5.30;;;2.30;;
20531;SDS011;10424;52.102;8.084;2022-09-27T07:35:37;6.97;;;2.75;;
20531;SDS011;10424;52.102;8.084;2022-09-27T07:38:06;4.57;;;2.50;;
20531;SDS011;10424;52.102;8.084;2022-09-27T07:40:34;6.78;;;2.33;;
20531;SDS011;10424;52.102;8.084;2022-09-27T07:43:02;6.18;;;2.10;;
20531;SDS011;10424;52.102;8.084;2022-09-27T07:45:30;5.65;;;2.45;;
20531;SDS011;10424;52.102;8.084;2022-09-27T07:47:58;6.32;;;1.73;;
20531;SDS011;10424;52.102;8.084;2022-09-27T07:50:25;5.45;;;1.70;;
20531;SDS011;10424;52.102;8.084;2022-09-27T07:52:53;4.97;;;1.73;;
20531;SDS011;10424;52.102;8.084;2022-09-27T07:55:22;5.18;;;1.50;;
20531;SDS011;10424;52.102;8.084;2022-09-27T07:57:49;4.85;;;1.80;;
20531;SDS011;10424;52.102;8.084;2022-09-27T08:00:18;3.20;;;1.65;;
20531;SDS011;10424;52.102;8.084;2022-09-27T08:02:45;6.18;;;1.83;;
20531;SDS011;10424;52.102;8.084;2022-09-27T08:05:13;4.90;;;1.80;;
20531;SDS011;10424;52.102;8.084;2022-09-27T08:07:41;5.63;;;1.92;;
20531;SDS011;10424;52.102;8.084;2022-09-27T08:10:08;5.07;;;2.10;;
20531;SDS011;10424;52.102;8.084;2022-09-27T08:12:37;4.72;;;1.80;;
20531;SDS011;10424;52.102;8.084;2022-09-27T08:15:04;5.85;;;1.90;;
20531;SDS011;10424;52.102;8.084;2022-09-27T08:17:32;6.78;;;2.35;;
20531;SDS011;10424;52.102;8.084;2022-09-27T08:19:59;7.53;;;2.10;;
20531;SDS011;10424;52.102;8.084;2022-09-27T08:22:30;5.72;;;1.90;;
20531;SDS011;10424;52.102;8.084;2022-09-27T08:24:58;7.65;;;1.70;;
20531;SDS011;10424;52.102;8.084;2022-09-27T08:27:25;4.78;;;1.70;;
20531;SDS011;10424;52.102;8.084;2022-09-27T08:29:54;4.80;;;1.52;;
20531;SDS011;10424;52.102;8.084;2022-09-27T08:32:22;5.75;;;1.65;;
20531;SDS011;10424;52.102;8.084;2022-09-27T08:34:49;6.03;;;1.77;;
20531;SDS011;10424;52.102;8.084;2022-09-27T08:37:17;6.97;;;2.33;;
20531;SDS011;10424;52.102;8.084;2022-09-27T08:39:44;5.32;;;1.73;;
20531;SDS011;10424;52.102;8.084;2022-09-27T08:42:14;4.68;;;1.83;;
20531;SDS011;10424;52.102;8.084;2022-09-27T08:44:45;7.97;;;1.67;;
20531;SDS011;10424;52.102;8.084;2022-09-27T08:47:20;5.65;;;1.50;;
20531;SDS011;10424;52.102;8.084;2022-09-27T08:49:50;3.58;;;1.52;;
20531;SDS011;10424;52.102;8.084;2022-09-27T08:52:21;4.28;;;1.48;;
20531;SDS011;10424;52.102;8.084;2022-09-27T08:54:51;6.07;;;1.67;;
20531;SDS011;10424;52.102;8.084;2022-09-27T08:57:19;5.47;;;2.05;;
20531;SDS011;10424;52.102;8.084;2022-09-27T08:59:49;2.90;;;1.40;;
20531;SDS011;10424;52.102;8.084;2022-09-27T09:02:20;4.57;;;1.40;;
20531;SDS011;10424;52.102;8.084;2022-09-27T09:04:50;2.60;;;1.73;;
20531;SDS011;10424;52.102;8.084;2022-09-27T09:07:23;2.88;;;1.10;;
20531;SDS011;10424;52.102;8.084;2022-09-27T09:09:55;4.32;;;1.38;;
20531;SDS011;10424;52.102;8.084;2022-09-27T09:12:31;4.70;;;1.20;;
20531;SDS011;10424;52.102;8.084;2022-09-27T09:15:25;3.38;;;1.30;;
20531;SDS011;10424;52.102;8.084;2022-09-27T09:18:00;7.13;;;1.30;;
20531;SDS011;10424;52.102;8.084;2022-09-27T09:20:33;4.80;;;1.30;;
20531;SDS011;10424;52.102;8.084;2022-09-27T09:26:02;4.43;;;1.05;;
20531;SDS011;10424;52.102;8.084;2022-09-27T09:28:36;2.80;;;1.00;;
20531;SDS011;10424;52.102;8.084;2022-09-27T09:31:05;2.15;;;1.10;;
20531;SDS011;10424;52.102;8.084;2022-09-27T09:33:38;2.53;;;1.00;;
20531;SDS011;10424;52.102;8.084;2022-09-27T09:36:09;3.15;;;0.70;;
20531;SDS011;10424;52.102;8.084;2022-09-27T09:38:40;1.90;;;0.60;;
20531;SDS011;10424;52.102;8.084;2022-09-27T09:41:10;3.47;;;0.70;;
20531;SDS011;10424;52.102;8.084;2022-09-27T09:43:42;2.63;;;0.70;;
20531;SDS011;10424;52.102;8.084;2022-09-27T09:46:13;3.40;;;1.00;;
20531;SDS011;10424;52.102;8.084;2022-09-27T09:48:44;3.63;;;1.00;;
20531;SDS011;10424;52.102;8.084;2022-09-27T09:51:15;4.00;;;1.20;;
20531;SDS011;10424;52.102;8.084;2022-09-27T09:53:47;3.72;;;1.05;;
20531;SDS011;10424;52.102;8.084;2022-09-27T09:56:16;4.63;;;1.25;;
20531;SDS011;10424;52.102;8.084;2022-09-27T09:58:48;4.65;;;1.20;;
20531;SDS011;10424;52.102;8.084;2022-09-27T10:01:17;2.85;;;1.08;;
20531;SDS011;10424;52.102;8.084;2022-09-27T10:03:46;3.95;;;0.98;;
20531;SDS011;10424;52.102;8.084;2022-09-27T10:06:14;3.55;;;0.85;;
20531;SDS011;10424;52.102;8.084;2022-09-27T10:08:42;3.92;;;0.85;;
20531;SDS011;10424;52.102;8.084;2022-09-27T10:11:12;2.35;;;0.90;;
20531;SDS011;10424;52.102;8.084;2022-09-27T10:13:43;3.15;;;0.80;;
20531;SDS011;10424;52.102;8.084;2022-09-27T10:16:11;2.90;;;0.75;;
20531;SDS011;10424;52.102;8.084;2022-09-27T10:18:40;3.58;;;0.75;;
20531;SDS011;10424;52.102;8.084;2022-09-27T10:21:10;3.65;;;0.75;;
20531;SDS011;10424;52.102;8.084;2022-09-27T10:26:21;2.85;;;1.00;;
20531;SDS011;10424;52.102;8.084;2022-09-27T10:28:49;2.90;;;1.00;;
20531;SDS011;10424;52.102;8.084;2022-09-27T10:31:17;2.42;;;1.17;;
20531;SDS011;10424;52.102;8.084;2022-09-27T10:33:50;2.35;;;0.90;;
20531;SDS011;10424;52.102;8.084;2022-09-27T10:36:22;2.15;;;0.80;;
20531;SDS011;10424;52.102;8.084;2022-09-27T10:38:51;3.60;;;0.82;;
20531;SDS011;10424;52.102;8.084;2022-09-27T10:41:21;1.25;;;0.60;;
20531;SDS011;10424;52.102;8.084;2022-09-27T10:43:49;1.17;;;0.60;;
20531;SDS011;10424;52.102;8.084;2022-09-27T10:46:20;1.58;;;0.65;;
20531;SDS011;10424;52.102;8.084;2022-09-27T10:51:34;3.03;;;0.60;;
20531;SDS011;10424;52.102;8.084;2022-09-27T10:54:02;2.95;;;0.80;;
20531;SDS011;10424;52.102;8.084;2022-09-27T10:56:30;4.75;;;0.80;;
20531;SDS011;10424;52.102;8.084;2022-09-27T10:58:58;2.00;;;0.60;;
20531;SDS011;10424;52.102;8.084;2022-09-27T11:01:36;2.38;;;0.82;;
20531;SDS011;10424;52.102;8.084;2022-09-27T11:04:05;1.50;;;0.57;;
20531;SDS011;10424;52.102;8.084;2022-09-27T11:06:34;1.15;;;0.45;;
20531;SDS011;10424;52.102;8.084;2022-09-27T11:09:15;2.05;;;0.65;;
20531;SDS011;10424;52.102;8.084;2022-09-27T11:11:44;1.73;;;0.60;;
20531;SDS011;10424;52.102;8.084;2022-09-27T11:14:21;2.47;;;0.65;;
20531;SDS011;10424;52.102;8.084;2022-09-27T11:16:59;3.70;;;0.65;;
20531;SDS011;10424;52.102;8.084;2022-09-27T11:19:34;1.02;;;0.80;;
20531;SDS011;10424;52.102;8.084;2022-09-27T11:22:07;1.73;;;0.88;;
20531;SDS011;10424;52.102;8.084;2022-09-27T11:24:47;1.85;;;0.82;;
20531;SDS011;10424;52.102;8.084;2022-09-27T11:27:18;1.25;;;0.60;;
20531;SDS011;10424;52.102;8.084;2022-09-27T11:29:56;0.80;;;0.50;;
20531;SDS011;10424;52.102;8.084;2022-09-27T11:32:28;2.53;;;0.70;;
20531;SDS011;10424;52.102;8.084;2022-09-27T11:35:02;0.82;;;0.60;;
20531;SDS011;10424;52.102;8.084;2022-09-27T11:37:35;1.58;;;0.60;;
20531;SDS011;10424;52.102;8.084;2022-09-27T11:40:11;1.75;;;0.60;;
20531;SDS011;10424;52.102;8.084;2022-09-27T11:45:25;2.20;;;0.70;;
20531;SDS011;10424;52.102;8.084;2022-09-27T11:48:02;1.45;;;0.50;;
20531;SDS011;10424;52.102;8.084;2022-09-27T11:50:36;1.85;;;0.70;;
20531;SDS011;10424;52.102;8.084;2022-09-27T11:53:15;0.95;;;0.60;;
20531;SDS011;10424;52.102;8.084;2022-09-27T11:55:48;1.10;;;0.60;;
20531;SDS011;10424;52.102;8.084;2022-09-27T11:58:20;3.65;;;0.73;;
20531;SDS011;10424;52.102;8.084;2022-09-27T12:06:04;1.50;;;0.80;;
20531;SDS011;10424;52.102;8.084;2022-09-27T12:08:38;2.90;;;0.50;;
20531;SDS011;10424;52.102;8.084;2022-09-27T12:11:11;3.22;;;0.80;;
20531;SDS011;10424;52.102;8.084;2022-09-27T12:13:40;1.42;;;0.80;;
20531;SDS011;10424;52.102;8.084;2022-09-27T12:16:09;1.33;;;0.73;;
20531;SDS011;10424;52.102;8.084;2022-09-27T12:18:39;2.97;;;0.95;;
20531;SDS011;10424;52.102;8.084;2022-09-27T12:21:08;2.05;;;0.80;;
20531;SDS011;10424;52.102;8.084;2022-09-27T12:23:40;1.05;;;0.90;;
20531;SDS011;10424;52.102;8.084;2022-09-27T12:26:09;2.55;;;1.00;;
20531;SDS011;10424;52.102;8.084;2022-09-27T12:28:39;1.23;;;1.13;;
20531;SDS011;10424;52.102;8.084;2022-09-27T12:31:11;1.52;;;1.00;;
20531;SDS011;10424;52.102;8.084;2022-09-27T12:33:43;2.15;;;0.90;;
20531;SDS011;10424;52.102;8.084;2022-09-27T12:36:15;3.58;;;1.30;;
20531;SDS011;10424;52.102;8.084;2022-09-27T12:38:46;2.40;;;1.30;;
20531;SDS011;10424;52.102;8.084;2022-09-27T12:41:18;3.33;;;1.50;;
20531;SDS011;10424;52.102;8.084;2022-09-27T12:43:48;2.83;;;1.50;;
20531;SDS011;10424;52.102;8.084;2022-09-27T12:46:18;2.40;;;1.70;;
20531;SDS011;10424;52.102;8.084;2022-09-27T12:48:50;2.97;;;1.88;;
20531;SDS011;10424;52.102;8.084;2022-09-27T12:51:25;4.95;;;1.98;;
20531;SDS011;10424;52.102;8.084;2022-09-27T12:54:02;2.47;;;1.80;;
20531;SDS011;10424;52.102;8.084;2022-09-27T12:57:02;2.63;;;2.10;;
20531;SDS011;10424;52.102;8.084;2022-09-27T12:59:34;4.47;;;1.90;;
20531;SDS011;10424;52.102;8.084;2022-09-27T13:02:17;3.35;;;2.03;;
20531;SDS011;10424;52.102;8.084;2022-09-27T13:04:51;3.95;;;2.10;;
20531;SDS011;10424;52.102;8.084;2022-09-27T13:07:24;2.35;;;2.03;;
20531;SDS011;10424;52.102;8.084;2022-09-27T13:12:47;3.88;;;1.80;;
20531;SDS011;10424;52.102;8.084;2022-09-27T13:15:18;2.25;;;1.80;;
20531;SDS011;10424;52.102;8.084;2022-09-27T13:17:51;4.30;;;2.00;;
20531;SDS011;10424;52.102;8.084;2022-09-27T13:20:31;3.50;;;1.98;;
20531;SDS011;10424;52.102;8.084;2022-09-27T13:22:58;2.15;;;1.80;;
20531;SDS011;10424;52.102;8.084;2022-09-27T13:30:57;2.58;;;2.20;;
20531;SDS011;10424;52.102;8.084;2022-09-27T13:39:15;3.88;;;1.80;;
20531;SDS011;10424;52.102;8.084;2022-09-27T13:44:49;2.20;;;1.50;;
20531;SDS011;10424;52.102;8.084;2022-09-27T13:47:25;1.15;;;1.00;;
20531;SDS011;10424;52.102;8.084;2022-09-27T13:49:57;2.30;;;1.00;;
20531;SDS011;10424;52.102;8.084;2022-09-27T13:52:27;2.17;;;1.08;;
20531;SDS011;10424;52.102;8.084;2022-09-27T13:54:58;1.35;;;1.10;;
20531;SDS011;10424;52.102;8.084;2022-09-27T13:57:42;1.42;;;1.10;;
20531;SDS011;10424;52.102;8.084;2022-09-27T14:00:13;1.75;;;1.10;;
20531;SDS011;10424;52.102;8.084;2022-09-27T14:02:48;1.75;;;1.23;;
20531;SDS011;10424;52.102;8.084;2022-09-27T14:05:19;2.28;;;1.30;;
20531;SDS011;10424;52.102;8.084;2022-09-27T14:07:47;1.52;;;1.15;;
20531;SDS011;10424;52.102;8.084;2022-09-27T14:10:17;1.38;;;1.00;;
20531;SDS011;10424;52.102;8.084;2022-09-27T14:12:47;2.10;;;1.20;;
20531;SDS011;10424;52.102;8.084;2022-09-27T14:15:17;2.72;;;1.05;;
20531;SDS011;10424;52.102;8.084;2022-09-27T14:17:46;1.50;;;0.93;;
20531;SDS011;10424;52.102;8.084;2022-09-27T14:23:05;0.98;;;0.80;;
20531;SDS011;10424;52.102;8.084;2022-09-27T14:25:43;0.90;;;0.77;;
20531;SDS011;10424;52.102;8.084;2022-09-27T14:28:17;0.95;;;0.93;;
20531;SDS011;10424;52.102;8.084;2022-09-27T14:30:45;2.60;;;1.00;;
20531;SDS011;10424;52.102;8.084;2022-09-27T14:33:26;1.00;;;0.90;;
20531;SDS011;10424;52.102;8.084;2022-09-27T14:35:54;1.38;;;0.80;;
20531;SDS011;10424;52.102;8.084;2022-09-27T14:38:38;1.25;;;0.70;;
20531;SDS011;10424;52.102;8.084;2022-09-27T14:41:06;1.73;;;0.80;;
20531;SDS011;10424;52.102;8.084;2022-09-27T14:43:35;1.10;;;0.70;;
20531;SDS011;10424;52.102;8.084;2022-09-27T14:46:03;2.28;;;0.90;;
20531;SDS011;10424;52.102;8.084;2022-09-27T14:48:33;1.25;;;0.88;;
20531;SDS011;10424;52.102;8.084;2022-09-27T14:51:01;2.42;;;1.00;;
20531;SDS011;10424;52.102;8.084;2022-09-27T14:53:30;1.60;;;0.90;;
20531;SDS011;10424;52.102;8.084;2022-09-27T14:55:57;3.60;;;1.20;;
20531;SDS011;10424;52.102;8.084;2022-09-27T14:58:25;1.85;;;1.13;;
20531;SDS011;10424;52.102;8.084;2022-09-27T15:00:54;2.28;;;1.30;;
20531;SDS011;10424;52.102;8.084;2022-09-27T15:03:25;2.33;;;1.15;;
20531;SDS011;10424;52.102;8.084;2022-09-27T15:05:55;3.10;;;1.20;;
20531;SDS011;10424;52.102;8.084;2022-09-27T15:08:26;2.38;;;1.10;;
20531;SDS011;10424;52.102;8.084;2022-09-27T15:10:57;1.83;;;1.15;;
20531;SDS011;10424;52.102;8.084;2022-09-27T15:13:25;3.28;;;1.13;;
20531;SDS011;10424;52.102;8.084;2022-09-27T15:15:52;1.75;;;1.20;;
20531;SDS011;10424;52.102;8.084;2022-09-27T15:18:33;1.73;;;1.25;;
20531;SDS011;10424;52.102;8.084;2022-09-27T15:21:07;1.50;;;1.20;;
20531;SDS011;10424;52.102;8.084;2022-09-27T15:23:35;2.67;;;1.40;;
20531;SDS011;10424;52.102;8.084;2022-09-27T15:26:05;2.40;;;1.50;;
20531;SDS011;10424;52.102;8.084;2022-09-27T15:28:35;2.03;;;1.45;;
20531;SDS011;10424;52.102;8.084;2022-09-27T15:31:04;4.20;;;1.40;;
20531;SDS011;10424;52.102;8.084;2022-09-27T15:33:32;1.50;;;1.30;;
20531;SDS011;10424;52.102;8.084;2022-09-27T15:36:00;2.97;;;1.42;;
20531;SDS011;10424;52.102;8.084;2022-09-27T15:38:30;2.17;;;1.40;;